Time;durP1;ratioP1;P1;durP2;ratioP2;P2;SDS_P1;SDS_P2;PMS_P1;PMS_P2;Temp;Humidity;BMP_temperature;BMP_pressure;BME280_temperature;BME280_humidity;BME280_pressure;Samples;Min_cycle;Max_cycle;Signal;HPM_P1;HPM_P2
2023/03/31 00:01:35;;;;;;;9.93;2.28;;;11.10;99.90;;;;;;5032655;28;20078;-91
2023/03/31 00:04:04;;;;;;;20.98;3.42;;;11.10;99.90;;;;;;5016389;28;20612;-91
2023/03/31 00:06:36;;;;;;;21.30;3.40;;;11.10;99.90;;;;;;5037693;28;20067;-92
2023/03/31 00:09:08;;;;;;;20.52;3.22;;;11.10;99.90;;;;;;5055880;28;20047;-92
2023/03/31 00:11:34;;;;;;;16.77;2.72;;;11.00;99.90;;;;;;5039453;28;20562;-92
2023/03/31 00:14:00;;;;;;;14.35;2.70;;;11.00;99.90;;;;;;5056123;28;20696;-92
2023/03/31 00:16:26;;;;;;;15.20;2.63;;;11.00;99.90;;;;;;5053005;28;20067;-92
2023/03/31 00:18:52;;;;;;;14.30;2.92;;;11.00;99.90;;;;;;5024504;28;20082;-93
2023/03/31 00:21:32;;;;;;;17.55;2.88;;;10.90;99.90;;;;;;5038918;28;20047;-93
2023/03/31 00:24:04;;;;;;;19.73;2.78;;;10.90;99.90;;;;;;5056282;28;20032;-92
2023/03/31 00:26:30;;;;;;;15.88;3.60;;;10.90;99.90;;;;;;5038579;28;20033;-92
2023/03/31 00:28:56;;;;;;;13.52;3.13;;;10.90;99.90;;;;;;5056187;28;20043;-92
2023/03/31 00:31:22;;;;;;;12.90;2.97;;;10.90;99.90;;;;;;5038384;28;20041;-92
2023/03/31 00:33:49;;;;;;;19.25;3.00;;;10.80;99.90;;;;;;5055747;28;20101;-91
2023/03/31 00:36:20;;;;;;;14.20;2.72;;;10.80;99.90;;;;;;5055902;28;20117;-92
2023/03/31 00:38:50;;;;;;;14.65;4.03;;;10.80;99.90;;;;;;5054411;28;20036;-92
2023/03/31 00:41:16;;;;;;;16.73;2.92;;;10.80;99.90;;;;;;5055045;28;20040;-91
2023/03/31 00:44:05;;;;;;;17.05;3.08;;;10.80;99.90;;;;;;5038323;28;20085;-91
2023/03/31 00:46:42;;;;;;;16.67;2.55;;;10.70;99.90;;;;;;5019551;28;20044;-92
2023/03/31 00:49:15;;;;;;;19.48;3.35;;;10.70;99.90;;;;;;5035681;28;20440;-92
2023/03/31 00:51:43;;;;;;;22.10;4.03;;;10.70;99.90;;;;;;5037254;28;20037;-92
2023/03/31 00:54:10;;;;;;;16.33;2.42;;;10.70;99.90;;;;;;5054956;28;20059;-92
2023/03/31 00:56:40;;;;;;;17.00;2.95;;;10.70;99.90;;;;;;5037703;28;20382;-91
2023/03/31 00:59:09;;;;;;;14.93;3.35;;;10.70;99.90;;;;;;5038142;28;20044;-91
2023/03/31 01:01:38;;;;;;;12.43;3.20;;;10.70;99.90;;;;;;5037464;28;20441;-92
2023/03/31 01:04:06;;;;;;;12.45;3.30;;;10.60;99.90;;;;;;5038683;28;20033;-92
2023/03/31 01:06:32;;;;;;;16.45;3.20;;;10.60;99.90;;;;;;5037956;28;20401;-92
2023/03/31 01:09:02;;;;;;;12.05;3.00;;;10.60;99.90;;;;;;5054998;28;20082;-91
2023/03/31 01:11:30;;;;;;;12.00;4.13;;;10.60;99.90;;;;;;5054566;28;20041;-91
2023/03/31 01:13:56;;;;;;;14.60;3.35;;;10.60;99.90;;;;;;5037225;28;20094;-92
2023/03/31 01:16:22;;;;;;;12.73;3.90;;;10.60;99.90;;;;;;5038252;28;20127;-91
2023/03/31 01:18:48;;;;;;;13.63;3.35;;;10.60;99.90;;;;;;5037016;28;20445;-91
2023/03/31 01:21:46;;;;;;;17.42;4.22;;;10.60;99.90;;;;;;5054236;28;20446;-92
2023/03/31 01:24:30;;;;;;;17.90;3.80;;;10.60;99.90;;;;;;5055198;28;20120;-91
2023/03/31 01:27:24;;;;;;;14.10;3.40;;;10.60;99.90;;;;;;5018476;28;20053;-91
2023/03/31 01:30:10;;;;;;;14.10;3.40;;;10.60;99.90;;;;;;5024169;28;20033;-92
2023/03/31 01:33:01;;;;;;;11.40;3.25;;;10.60;99.90;;;;;;5018350;28;20056;-92
2023/03/31 01:35:38;;;;;;;17.05;4.70;;;10.60;99.90;;;;;;5018166;28;20033;-91
2023/03/31 01:38:31;;;;;;;16.23;3.83;;;10.50;99.90;;;;;;5031003;28;20107;-91
2023/03/31 01:41:15;;;;;;;15.30;4.00;;;10.50;99.90;;;;;;5038101;28;20052;-91
2023/03/31 01:44:15;;;;;;;11.88;3.35;;;10.50;99.90;;;;;;5035033;28;20079;-91
2023/03/31 01:46:52;;;;;;;13.68;3.92;;;10.40;99.90;;;;;;4982660;28;20053;-91
2023/03/31 01:49:26;;;;;;;11.90;2.85;;;10.40;99.90;;;;;;5028154;28;20024;-92
2023/03/31 01:52:01;;;;;;;15.38;3.28;;;10.40;99.90;;;;;;5055014;28;20413;-91
2023/03/31 01:54:44;;;;;;;15.27;3.60;;;10.40;99.90;;;;;;5035511;28;20789;-91
2023/03/31 01:57:19;;;;;;;13.57;3.17;;;10.40;99.90;;;;;;5050680;28;20501;-92
2023/03/31 01:59:57;;;;;;;12.40;3.55;;;10.40;99.90;;;;;;5053821;28;20080;-92
2023/03/31 02:02:35;;;;;;;11.48;2.85;;;10.40;99.90;;;;;;5049918;28;20086;-93
2023/03/31 02:05:08;;;;;;;15.15;3.25;;;10.40;99.90;;;;;;5055149;28;20047;-92
2023/03/31 02:07:37;;;;;;;;;;;10.30;99.90;;;;;;5051089;28;20056;-92
2023/03/31 02:10:07;;;;;;;13.98;2.63;;;10.40;99.90;;;;;;5034303;28;19952;-91
2023/03/31 02:12:34;;;;;;;17.35;3.20;;;10.40;99.90;;;;;;5025403;28;20515;-91
2023/03/31 02:15:04;;;;;;;10.68;3.00;;;10.40;99.90;;;;;;5037535;28;20032;-92
2023/03/31 02:17:31;;;;;;;11.00;2.78;;;10.40;99.90;;;;;;5053592;28;20037;-92
2023/03/31 02:20:04;;;;;;;10.48;2.92;;;10.40;99.90;;;;;;5053363;28;20070;-93
2023/03/31 02:22:33;;;;;;;13.95;3.08;;;10.30;99.90;;;;;;5037465;28;20401;-92
2023/03/31 02:25:02;;;;;;;14.43;3.35;;;10.40;99.90;;;;;;5037065;28;20392;-93
2023/03/31 02:27:31;;;;;;;11.45;2.90;;;10.40;99.90;;;;;;5053539;28;20513;-93
2023/03/31 02:29:58;;;;;;;11.18;2.78;;;10.40;99.90;;;;;;5053050;28;20041;-91
2023/03/31 02:32:31;;;;;;;13.88;3.00;;;10.40;99.90;;;;;;5029454;28;20505;-92
2023/03/31 02:34:58;;;;;;;11.30;2.65;;;10.40;99.90;;;;;;5037089;28;20044;-92
2023/03/31 02:37:25;;;;;;;12.52;3.10;;;10.40;99.90;;;;;;5036678;28;20520;-91
2023/03/31 02:39:53;;;;;;;14.52;2.85;;;10.40;99.90;;;;;;5036768;28;20086;-92
2023/03/31 02:42:19;;;;;;;13.68;2.85;;;10.50;99.90;;;;;;5036777;28;20123;-92
2023/03/31 02:44:45;;;;;;;15.32;3.00;;;10.50;99.90;;;;;;5052801;28;20037;-93
2023/03/31 02:47:14;;;;;;;12.35;2.70;;;10.50;99.90;;;;;;5054170;28;20032;-92
2023/03/31 02:49:44;;;;;;;13.10;2.88;;;10.50;99.90;;;;;;5053382;28;20040;-93
2023/03/31 02:52:37;;;;;;;8.32;2.22;;;10.60;99.90;;;;;;5052798;28;20111;-93
2023/03/31 02:55:12;;;;;;;8.68;2.33;;;10.60;99.90;;;;;;5052523;28;20036;-93
2023/03/31 02:57:50;;;;;;;9.75;3.35;;;10.60;99.90;;;;;;5048042;28;20446;-92
2023/03/31 03:00:33;;;;;;;10.02;2.55;;;10.70;99.90;;;;;;5036344;28;20108;-91
2023/03/31 03:03:08;;;;;;;10.65;3.25;;;10.70;99.90;;;;;;5035217;28;20044;-92
2023/03/31 03:06:04;;;;;;;9.75;2.38;;;10.70;99.90;;;;;;5052963;28;20512;-92
2023/03/31 03:08:36;;;;;;;11.68;2.72;;;10.70;99.90;;;;;;5051377;28;20123;-91
2023/03/31 03:11:17;;;;;;;7.35;2.33;;;10.70;99.90;;;;;;5037210;28;20156;-92
2023/03/31 03:13:58;;;;;;;8.88;2.72;;;10.70;99.90;;;;;;5033095;28;20084;-92
2023/03/31 03:16:29;;;;;;;8.65;3.50;;;10.70;99.90;;;;;;5052061;28;20054;-91
2023/03/31 03:18:57;;;;;;;8.80;2.33;;;10.70;99.90;;;;;;5036443;28;20036;-93
2023/03/31 03:21:23;;;;;;;9.40;2.80;;;10.70;99.90;;;;;;5049752;28;20040;-92
2023/03/31 03:23:50;;;;;;;11.10;2.83;;;10.70;99.90;;;;;;5031890;28;20390;-91
2023/03/31 03:26:20;;;;;;;11.02;2.78;;;10.70;99.90;;;;;;5036778;28;20043;-93
2023/03/31 03:28:49;;;;;;;10.80;2.70;;;10.70;99.90;;;;;;5052810;28;20033;-91
2023/03/31 03:31:16;;;;;;;9.50;2.83;;;10.70;99.90;;;;;;5035816;28;20044;-92
2023/03/31 03:33:42;;;;;;;12.73;3.00;;;10.80;99.90;;;;;;5052130;28;20135;-91
2023/03/31 03:36:08;;;;;;;11.70;3.58;;;10.70;99.90;;;;;;5039747;28;20044;-92
2023/03/31 03:38:33;;;;;;;8.73;2.70;;;10.70;99.90;;;;;;5016347;28;20033;-92
2023/03/31 03:40:59;;;;;;;7.40;2.45;;;10.70;99.90;;;;;;5028110;28;20067;-92
2023/03/31 03:43:25;;;;;;;12.18;3.15;;;10.70;99.90;;;;;;5056879;28;20079;-92
2023/03/31 03:45:50;;;;;;;10.85;2.83;;;10.70;99.90;;;;;;5039333;28;20047;-93
2023/03/31 03:48:17;;;;;;;11.65;2.75;;;10.70;99.90;;;;;;5020824;28;20044;-92
2023/03/31 03:50:44;;;;;;;11.98;3.22;;;10.70;99.90;;;;;;5036994;28;20049;-92
2023/03/31 03:53:10;;;;;;;9.45;2.88;;;10.60;99.90;;;;;;5051781;28;20036;-93
2023/03/31 03:55:36;;;;;;;9.27;3.05;;;10.70;99.90;;;;;;5056723;28;20047;-92
2023/03/31 03:58:01;;;;;;;7.15;2.40;;;10.60;99.90;;;;;;5039440;28;20102;-93
2023/03/31 04:00:27;;;;;;;9.25;2.78;;;10.60;99.90;;;;;;5040226;28;20047;-93
2023/03/31 04:02:53;;;;;;;10.63;2.55;;;10.60;99.90;;;;;;5056685;28;20543;-91
2023/03/31 04:05:18;;;;;;;7.68;2.33;;;10.60;99.90;;;;;;5054937;28;20444;-93
2023/03/31 04:07:44;;;;;;;8.15;2.92;;;10.50;99.90;;;;;;5057031;28;20516;-93
2023/03/31 04:10:10;;;;;;;12.07;2.75;;;10.50;99.90;;;;;;5035452;28;20621;-93
2023/03/31 04:12:35;;;;;;;9.30;2.65;;;10.50;99.90;;;;;;5034935;28;20102;-91
2023/03/31 04:15:02;;;;;;;7.93;2.38;;;10.50;99.90;;;;;;5054804;28;20436;-91
2023/03/31 04:17:35;;;;;;;8.82;2.33;;;10.50;99.90;;;;;;5037812;28;20044;-92
2023/03/31 04:20:06;;;;;;;9.07;2.40;;;10.50;99.90;;;;;;5055679;28;20090;-90
2023/03/31 04:22:39;;;;;;;7.50;2.63;;;10.60;99.90;;;;;;5038179;28;20052;-90
2023/03/31 04:25:13;;;;;;;8.70;2.70;;;10.50;99.90;;;;;;5056143;28;20068;-91
2023/03/31 04:27:53;;;;;;;8.82;2.55;;;10.60;99.90;;;;;;5038519;28;20045;-91
2023/03/31 04:30:29;;;;;;;10.95;2.67;;;10.60;99.90;;;;;;5035438;28;20033;-91
2023/03/31 04:33:01;;;;;;;9.27;2.97;;;10.60;99.90;;;;;;5040768;28;20043;-91
2023/03/31 04:35:47;;;;;;;9.30;3.17;;;10.60;99.90;;;;;;5038656;28;20505;-91
2023/03/31 04:38:12;;;;;;;8.98;2.78;;;10.60;99.90;;;;;;5038412;28;20039;-91
2023/03/31 04:40:40;;;;;;;10.48;2.70;;;10.60;99.90;;;;;;5054448;28;20137;-91
2023/03/31 04:43:05;;;;;;;11.55;3.13;;;10.60;99.90;;;;;;5054925;28;20131;-91
2023/03/31 04:45:31;;;;;;;11.32;3.28;;;10.60;99.90;;;;;;5039301;28;20159;-91
2023/03/31 04:47:57;;;;;;;12.73;2.80;;;10.70;99.90;;;;;;5056423;28;20092;-91
2023/03/31 04:50:22;;;;;;;13.77;2.85;;;10.70;99.90;;;;;;5056484;28;20037;-91
2023/03/31 04:52:48;;;;;;;9.35;2.83;;;10.70;99.90;;;;;;5054867;28;20136;-91
2023/03/31 04:55:14;;;;;;;11.90;3.25;;;10.60;99.90;;;;;;5038889;28;20043;-91
2023/03/31 04:57:40;;;;;;;12.25;2.97;;;10.70;99.90;;;;;;5055551;28;20068;-89
2023/03/31 05:00:07;;;;;;;11.57;3.13;;;10.70;99.90;;;;;;5031999;28;20033;-91
2023/03/31 05:02:33;;;;;;;7.70;2.45;;;10.70;99.90;;;;;;5037797;28;20041;-91
2023/03/31 05:04:59;;;;;;;11.98;3.65;;;10.70;99.90;;;;;;5049148;28;20033;-91
2023/03/31 05:07:25;;;;;;;13.30;3.80;;;10.70;99.90;;;;;;5039019;28;20039;-91
2023/03/31 05:09:50;;;;;;;11.90;3.33;;;10.70;99.90;;;;;;5050707;28;20039;-92
2023/03/31 05:12:16;;;;;;;10.48;2.90;;;10.70;99.90;;;;;;5032261;28;20032;-91
2023/03/31 05:14:42;;;;;;;8.73;2.75;;;10.70;99.90;;;;;;5036493;28;20044;-91
2023/03/31 05:17:07;;;;;;;11.25;3.28;;;10.70;99.90;;;;;;5036499;28;20115;-91
2023/03/31 05:19:33;;;;;;;8.82;2.58;;;10.70;99.90;;;;;;5036932;28;20043;-91
2023/03/31 05:21:59;;;;;;;11.43;3.08;;;10.70;99.90;;;;;;5053401;28;20036;-91
2023/03/31 05:24:27;;;;;;;10.07;2.88;;;10.70;99.90;;;;;;5031616;28;20037;-92
2023/03/31 05:26:53;;;;;;;10.77;2.97;;;10.80;99.90;;;;;;5037814;28;20066;-91
2023/03/31 05:29:19;;;;;;;11.65;3.03;;;10.70;99.90;;;;;;5037167;28;20417;-91
2023/03/31 05:31:45;;;;;;;9.93;2.72;;;10.70;99.90;;;;;;5052007;28;20120;-92
2023/03/31 05:34:11;;;;;;;9.48;2.80;;;10.70;99.90;;;;;;5051770;28;20056;-91
2023/03/31 05:36:37;;;;;;;10.40;2.97;;;10.70;99.90;;;;;;5017766;28;20124;-91
2023/03/31 05:39:04;;;;;;;12.55;2.85;;;10.70;99.90;;;;;;5053493;28;20143;-91
2023/03/31 05:41:30;;;;;;;11.57;2.95;;;10.70;99.90;;;;;;5035296;28;20036;-92
2023/03/31 05:43:56;;;;;;;13.35;3.15;;;10.70;99.90;;;;;;5036531;28;20457;-92
2023/03/31 05:46:22;;;;;;;10.25;2.72;;;10.70;99.90;;;;;;5034660;28;20520;-91
2023/03/31 05:48:48;;;;;;;8.50;2.70;;;10.70;99.90;;;;;;5034227;28;20040;-92
2023/03/31 05:51:13;;;;;;;9.50;3.25;;;10.70;99.90;;;;;;5053958;28;20040;-91
2023/03/31 05:53:39;;;;;;;12.68;3.58;;;10.70;99.90;;;;;;5052703;28;20140;-91
2023/03/31 05:56:06;;;;;;;13.77;3.20;;;10.70;99.90;;;;;;5052902;28;20044;-91
2023/03/31 05:58:35;;;;;;;7.82;2.72;;;10.60;99.90;;;;;;5051616;28;20048;-91
2023/03/31 06:01:01;;;;;;;9.35;2.92;;;10.70;99.90;;;;;;5035701;28;20040;-92
2023/03/31 06:03:27;;;;;;;10.20;2.88;;;10.70;99.90;;;;;;5036472;28;20032;-92
2023/03/31 06:05:54;;;;;;;9.88;2.88;;;10.70;99.90;;;;;;5035046;28;20040;-92
2023/03/31 06:08:20;;;;;;;11.52;3.10;;;10.70;99.90;;;;;;5052597;28;20437;-92
2023/03/31 06:10:45;;;;;;;10.68;3.08;;;10.70;99.90;;;;;;5053929;28;20177;-92
2023/03/31 06:13:11;;;;;;;10.73;2.80;;;10.70;99.90;;;;;;5036459;28;20520;-91
2023/03/31 06:15:36;;;;;;;11.80;2.78;;;10.70;99.90;;;;;;5054035;28;20037;-91
2023/03/31 06:18:02;;;;;;;10.30;2.63;;;10.70;99.90;;;;;;5041673;28;20135;-91
2023/03/31 06:20:28;;;;;;;11.88;2.90;;;10.70;99.90;;;;;;5035281;28;20131;-92
2023/03/31 06:22:53;;;;;;;10.10;2.55;;;10.70;99.90;;;;;;5052859;28;20044;-92
2023/03/31 06:25:19;;;;;;;9.15;2.38;;;10.70;99.90;;;;;;5050190;28;20031;-91
2023/03/31 06:27:45;;;;;;;10.43;2.20;;;10.70;99.90;;;;;;5036220;28;20085;-91
2023/03/31 06:30:11;;;;;;;8.68;2.40;;;10.70;99.90;;;;;;5033283;28;20445;-92
2023/03/31 06:32:37;;;;;;;10.10;2.20;;;10.70;99.90;;;;;;5035748;28;20047;-92
2023/03/31 06:35:02;;;;;;;8.30;2.55;;;10.70;99.90;;;;;;5044028;28;20433;-92
2023/03/31 06:37:28;;;;;;;9.13;2.38;;;10.70;99.90;;;;;;5030074;28;20049;-92
2023/03/31 06:39:54;;;;;;;10.27;2.53;;;10.70;99.90;;;;;;5034967;28;20036;-92
2023/03/31 06:42:19;;;;;;;11.60;2.55;;;10.80;99.90;;;;;;5035392;28;20116;-92
2023/03/31 06:44:45;;;;;;;10.70;2.10;;;10.70;99.90;;;;;;5052135;28;20441;-92
2023/03/31 06:47:10;;;;;;;8.82;2.30;;;10.80;99.90;;;;;;5051999;28;20070;-93
2023/03/31 06:49:36;;;;;;;8.90;2.33;;;10.80;99.90;;;;;;5025934;28;20112;-92
2023/03/31 06:52:02;;;;;;;9.23;2.40;;;10.80;99.90;;;;;;5048417;28;20046;-92
2023/03/31 06:54:28;;;;;;;9.77;2.20;;;10.80;99.90;;;;;;5052805;28;20052;-92
2023/03/31 06:56:54;;;;;;;11.98;2.38;;;10.80;99.90;;;;;;5052848;28;20397;-92
2023/03/31 06:59:19;;;;;;;12.93;3.30;;;10.90;99.90;;;;;;5035656;28;20044;-92
2023/03/31 07:01:47;;;;;;;8.75;3.38;;;10.90;99.90;;;;;;5035332;28;20056;-92
2023/03/31 07:04:12;;;;;;;9.52;2.67;;;10.90;99.90;;;;;;5034673;28;20041;-92
2023/03/31 07:06:38;;;;;;;9.75;2.42;;;10.90;99.90;;;;;;5052328;28;20041;-93
2023/03/31 07:09:04;;;;;;;11.25;2.80;;;10.90;99.90;;;;;;5052535;28;20040;-91
2023/03/31 07:11:30;;;;;;;8.23;2.97;;;11.00;99.90;;;;;;5034462;28;20044;-92
2023/03/31 07:13:55;;;;;;;8.57;2.53;;;11.00;99.90;;;;;;5034544;28;20032;-92
2023/03/31 07:16:22;;;;;;;8.90;2.17;;;11.00;99.90;;;;;;5054959;28;20455;-91
2023/03/31 07:18:49;;;;;;;10.32;2.72;;;11.00;99.90;;;;;;5036613;28;20523;-92
2023/03/31 07:21:15;;;;;;;10.48;2.42;;;11.00;99.90;;;;;;5019452;28;20045;-92
2023/03/31 07:23:40;;;;;;;10.55;3.05;;;11.00;99.90;;;;;;5026420;28;20036;-90
2023/03/31 07:26:07;;;;;;;7.63;2.25;;;11.00;99.90;;;;;;5038338;28;20386;-91
2023/03/31 07:28:32;;;;;;;9.95;2.47;;;11.10;99.90;;;;;;5037062;28;20509;-91
2023/03/31 07:30:58;;;;;;;11.82;2.33;;;11.10;99.90;;;;;;5048570;28;20039;-91
2023/03/31 07:33:24;;;;;;;8.90;2.80;;;11.10;99.90;;;;;;5040123;28;20048;-92
2023/03/31 07:35:50;;;;;;;10.63;2.28;;;11.10;99.90;;;;;;5038406;28;20037;-91
2023/03/31 07:38:15;;;;;;;8.60;1.90;;;11.10;99.90;;;;;;5039102;28;20040;-91
2023/03/31 07:40:43;;;;;;;8.25;2.05;;;11.10;99.90;;;;;;5054814;28;20047;-92
2023/03/31 07:43:09;;;;;;;9.07;2.33;;;11.10;99.90;;;;;;5038077;28;20033;-91
2023/03/31 07:45:35;;;;;;;10.43;2.08;;;11.10;99.90;;;;;;5038721;28;20029;-91
2023/03/31 07:48:00;;;;;;;7.60;2.10;;;11.10;99.90;;;;;;5055410;28;20124;-91
2023/03/31 07:50:26;;;;;;;11.07;1.88;;;11.20;99.90;;;;;;5038979;28;20040;-92
2023/03/31 07:52:52;;;;;;;8.70;2.28;;;11.20;99.90;;;;;;5054629;28;20526;-91
2023/03/31 07:55:18;;;;;;;12.10;2.35;;;11.20;99.90;;;;;;5053704;28;20090;-91
2023/03/31 07:57:45;;;;;;;7.93;2.03;;;11.20;99.90;;;;;;5039989;28;20075;-92
2023/03/31 08:00:12;;;;;;;8.23;2.35;;;11.20;99.90;;;;;;5054578;28;20048;-92
2023/03/31 08:02:42;;;;;;;9.45;2.47;;;11.20;99.90;;;;;;5055247;28;20036;-92
2023/03/31 08:05:08;;;;;;;10.90;2.15;;;11.20;99.90;;;;;;5054532;28;20048;-93
2023/03/31 08:07:36;;;;;;;8.45;2.08;;;11.20;99.90;;;;;;5024709;28;20025;-91
2023/03/31 08:10:03;;;;;;;8.60;2.45;;;11.30;99.90;;;;;;5049523;28;20043;-92
2023/03/31 08:12:29;;;;;;;11.52;1.98;;;11.20;99.90;;;;;;5054883;28;20055;-92
2023/03/31 08:14:55;;;;;;;8.93;2.50;;;11.20;99.90;;;;;;5052762;28;20041;-93
2023/03/31 08:17:20;;;;;;;9.73;2.00;;;11.20;99.90;;;;;;5046760;28;20040;-91
2023/03/31 08:19:46;;;;;;;10.45;2.55;;;11.20;99.90;;;;;;5038766;28;20044;-92
2023/03/31 08:22:11;;;;;;;9.30;2.33;;;11.30;99.90;;;;;;5036807;28;20087;-92
2023/03/31 08:24:37;;;;;;;7.97;1.98;;;11.30;99.90;;;;;;5053840;28;20043;-91
2023/03/31 08:27:03;;;;;;;11.52;2.38;;;11.30;99.90;;;;;;5037322;28;20101;-91
2023/03/31 08:29:28;;;;;;;6.05;1.92;;;11.30;99.90;;;;;;5036193;28;20588;-93
2023/03/31 08:31:54;;;;;;;10.23;2.75;;;11.30;99.90;;;;;;5054963;28;20082;-92
2023/03/31 08:34:20;;;;;;;9.18;2.33;;;11.30;99.90;;;;;;5054644;28;20061;-92
2023/03/31 08:36:46;;;;;;;8.30;1.70;;;11.30;99.90;;;;;;5052787;28;20040;-91
2023/03/31 08:39:12;;;;;;;13.68;2.90;;;11.30;99.90;;;;;;5055010;28;20036;-92
2023/03/31 08:41:54;;;;;;;8.15;2.47;;;11.40;99.90;;;;;;5045004;28;20557;-91
2023/03/31 08:44:38;;;;;;;7.13;2.20;;;11.40;99.90;;;;;;5038174;28;20032;-92
2023/03/31 08:47:09;;;;;;;6.50;1.80;;;11.30;99.90;;;;;;5053748;28;20036;-91
2023/03/31 08:49:45;;;;;;;7.45;2.58;;;11.40;99.90;;;;;;5054793;28;20396;-91
2023/03/31 08:52:16;;;;;;;10.55;2.22;;;11.40;99.90;;;;;;5054382;28;20524;-91
2023/03/31 08:54:53;;;;;;;9.50;2.22;;;11.40;99.90;;;;;;5037550;28;20138;-92
2023/03/31 08:57:37;;;;;;;9.48;2.00;;;11.40;99.90;;;;;;5036841;28;20131;-91
2023/03/31 09:00:05;;;;;;;9.38;1.80;;;11.40;99.90;;;;;;5051521;28;20049;-92
2023/03/31 09:02:59;;;;;;;8.55;2.30;;;11.40;99.90;;;;;;5018184;28;20495;-92
2023/03/31 09:06:03;;;;;;;6.63;1.60;;;11.40;99.90;;;;;;5042603;28;20501;-91
2023/03/31 09:08:38;;;;;;;7.10;1.65;;;11.40;99.90;;;;;;5017973;28;20049;-92
2023/03/31 09:11:18;;;;;;;6.72;1.58;;;11.30;99.90;;;;;;5024040;28;20032;-91
2023/03/31 09:13:55;;;;;;;8.63;1.98;;;11.30;99.90;;;;;;5017702;28;20083;-90
2023/03/31 09:16:32;;;;;;;8.80;1.88;;;11.30;99.90;;;;;;5042557;28;20075;-92
2023/03/31 09:19:01;;;;;;;6.90;2.05;;;11.30;99.90;;;;;;5018684;28;20044;-91
2023/03/31 09:21:39;;;;;;;7.55;1.65;;;11.30;99.90;;;;;;5033946;28;20037;-91
2023/03/31 09:24:20;;;;;;;7.50;1.50;;;11.30;99.90;;;;;;5046516;28;20094;-91
2023/03/31 09:26:54;;;;;;;5.60;1.58;;;11.30;99.90;;;;;;5055076;28;20045;-91
2023/03/31 09:29:30;;;;;;;7.15;1.67;;;11.30;99.90;;;;;;5035939;28;20120;-92
2023/03/31 09:32:05;;;;;;;6.15;1.60;;;11.30;99.90;;;;;;5038184;28;20090;-92
2023/03/31 09:34:33;;;;;;;7.95;1.90;;;11.30;99.90;;;;;;5053791;28;20040;-91
2023/03/31 09:36:59;;;;;;;6.28;1.65;;;11.20;99.90;;;;;;5038102;28;20039;-92
2023/03/31 09:39:26;;;;;;;4.88;1.67;;;11.30;99.90;;;;;;5037926;28;20485;-92
2023/03/31 09:41:52;;;;;;;7.78;2.08;;;11.30;99.90;;;;;;5037494;28;20486;-91
2023/03/31 09:44:41;;;;;;;10.75;2.28;;;11.40;99.90;;;;;;5054453;28;20115;-93
2023/03/31 09:47:14;;;;;;;7.55;1.83;;;11.40;99.90;;;;;;5036903;28;20058;-89
2023/03/31 09:49:45;;;;;;;8.77;2.22;;;11.40;99.90;;;;;;5036673;28;20029;-92
2023/03/31 09:52:19;;;;;;;11.02;2.20;;;11.50;99.90;;;;;;5036886;28;20489;-92
2023/03/31 09:54:53;;;;;;;6.95;1.65;;;11.50;99.90;;;;;;5036044;28;20039;-93
2023/03/31 09:57:37;;;;;;;6.00;1.73;;;11.50;99.90;;;;;;5048892;28;20471;-93
2023/03/31 10:00:13;;;;;;;6.72;1.48;;;11.60;99.90;;;;;;5051507;28;20048;-93
2023/03/31 10:02:49;;;;;;;8.38;1.63;;;11.60;99.90;;;;;;5032569;28;20133;-92
2023/03/31 10:05:42;;;;;;;6.90;1.20;;;11.60;99.90;;;;;;5030523;28;20119;-93
2023/03/31 10:08:18;;;;;;;4.05;1.17;;;11.60;99.90;;;;;;5057397;28;20036;-92
2023/03/31 10:10:48;;;;;;;6.20;1.08;;;11.60;99.90;;;;;;5051696;28;20036;-92
2023/03/31 10:13:28;;;;;;;7.03;1.67;;;11.60;99.90;;;;;;5053197;28;20047;-93
2023/03/31 10:16:01;;;;;;;5.25;1.27;;;11.60;99.90;;;;;;5035718;28;20501;-92
2023/03/31 10:18:35;;;;;;;6.18;1.35;;;11.60;99.90;;;;;;5027742;28;20094;-91
2023/03/31 10:21:03;;;;;;;5.70;1.20;;;11.60;99.90;;;;;;5047653;28;20036;-92
2023/03/31 10:23:31;;;;;;;4.88;1.55;;;11.70;99.90;;;;;;5050418;28;20032;-91
2023/03/31 10:25:58;;;;;;;6.95;1.55;;;11.70;99.90;;;;;;5050109;28;20090;-91
2023/03/31 10:28:25;;;;;;;8.23;1.55;;;11.80;99.90;;;;;;5035363;28;20123;-92
2023/03/31 10:30:53;;;;;;;5.93;1.45;;;11.90;99.90;;;;;;5035630;28;20036;-92
2023/03/31 10:33:24;;;;;;;5.80;1.23;;;11.90;99.90;;;;;;5051339;28;20044;-93
2023/03/31 10:36:08;;;;;;;5.07;1.38;;;12.00;99.90;;;;;;5036439;28;20040;-92
2023/03/31 10:38:42;;;;;;;6.88;1.77;;;12.00;99.90;;;;;;5052264;28;20064;-92
2023/03/31 10:41:08;;;;;;;7.97;1.90;;;12.00;99.90;;;;;;5051463;28;20398;-93
2023/03/31 10:43:42;;;;;;;6.28;1.48;;;12.00;99.90;;;;;;5051394;28;20515;-92
2023/03/31 10:46:08;;;;;;;7.50;2.05;;;12.00;99.90;;;;;;5052985;28;20045;-92
2023/03/31 10:48:43;;;;;;;4.65;1.30;;;11.90;99.90;;;;;;5035742;28;20047;-93
2023/03/31 10:51:25;;;;;;;5.22;1.33;;;12.00;99.90;;;;;;5052876;28;20040;-92
2023/03/31 10:53:53;;;;;;;6.82;1.70;;;12.00;99.90;;;;;;5049049;28;20041;-92
2023/03/31 10:56:43;;;;;;;4.35;1.40;;;12.00;99.90;;;;;;5050818;28;20040;-92
2023/03/31 10:59:28;;;;;;;6.05;1.65;;;12.10;99.90;;;;;;5032145;28;20481;-93
2023/03/31 11:02:12;;;;;;;6.07;1.63;;;12.10;99.90;;;;;;5051805;28;20409;-93
2023/03/31 11:04:37;;;;;;;6.95;1.52;;;12.10;99.90;;;;;;5035445;28;20180;-93
2023/03/31 11:07:31;;;;;;;6.50;1.50;;;12.10;99.90;;;;;;5035425;28;20505;-92
2023/03/31 11:09:59;;;;;;;6.93;1.42;;;12.20;99.90;;;;;;5035480;28;20032;-93
2023/03/31 11:12:43;;;;;;;5.15;1.50;;;12.20;99.90;;;;;;5032414;28;20046;-93
2023/03/31 11:15:21;;;;;;;4.32;1.40;;;12.20;99.90;;;;;;5033586;28;20030;-94
2023/03/31 11:17:46;;;;;;;6.70;1.52;;;12.30;99.90;;;;;;5052450;28;20041;-93
2023/03/31 11:20:37;;;;;;;6.18;1.63;;;12.30;99.90;;;;;;5035287;28;20047;-93
2023/03/31 11:23:20;;;;;;;7.70;1.73;;;12.40;99.90;;;;;;5036534;28;20037;-92
2023/03/31 11:25:51;;;;;;;;;;;12.50;99.90;;;;;;5053131;28;20032;-92
2023/03/31 11:28:33;;;;;;;5.45;1.70;;;12.50;99.90;;;;;;5035322;28;19917;-92
2023/03/31 11:32:08;;;;;;;6.50;1.90;;;12.50;99.90;;;;;;5023606;28;20041;-92
2023/03/31 11:35:13;;;;;;;7.95;1.95;;;12.50;99.90;;;;;;4896403;29;20052;-93
2023/03/31 11:37:51;;;;;;;7.05;1.60;;;12.50;99.90;;;;;;4895052;29;20055;-93
2023/03/31 11:40:53;;;;;;;7.85;1.83;;;12.50;99.90;;;;;;4953042;28;20486;-93
2023/03/31 11:43:42;;;;;;;9.40;2.03;;;12.40;99.90;;;;;;4950837;28;20042;-93
2023/03/31 11:46:24;;;;;;;8.52;1.65;;;12.40;99.90;;;;;;4972906;28;20169;-94
2023/03/31 11:49:04;;;;;;;10.38;2.97;;;12.50;99.90;;;;;;4972023;28;20038;-93
2023/03/31 11:51:53;;;;;;;8.43;2.53;;;12.40;99.90;;;;;;4954000;28;20062;-94
2023/03/31 11:54:30;;;;;;;8.30;2.13;;;12.40;99.90;;;;;;4946439;28;20030;-93
2023/03/31 11:56:58;;;;;;;10.80;3.00;;;12.40;99.90;;;;;;4973381;28;20034;-94
2023/03/31 11:59:30;;;;;;;8.02;2.35;;;12.50;99.90;;;;;;4972670;28;20042;-94
2023/03/31 12:02:14;;;;;;;10.52;2.40;;;12.50;99.90;;;;;;4953882;28;20046;-94
2023/03/31 12:04:44;;;;;;;10.23;2.20;;;12.50;99.90;;;;;;4941010;28;20055;-94
2023/03/31 12:07:45;;;;;;;7.20;2.22;;;12.50;99.90;;;;;;4975935;28;20170;-93
2023/03/31 12:10:36;;;;;;;10.48;2.25;;;12.50;99.90;;;;;;4897460;28;20046;-93
2023/03/31 12:13:38;;;;;;;8.40;2.30;;;12.60;99.90;;;;;;5052735;28;20048;-92
2023/03/31 12:16:44;;;;;;;9.98;2.78;;;12.70;99.90;;;;;;5039550;28;20040;-93
2023/03/31 12:19:26;;;;;;;10.32;2.78;;;12.80;99.90;;;;;;5020178;28;20383;-94
2023/03/31 12:22:09;;;;;;;9.15;2.55;;;12.90;99.90;;;;;;5039811;28;20040;-94
2023/03/31 12:24:35;;;;;;;8.25;2.45;;;13.10;99.90;;;;;;5038318;28;20036;-93
2023/03/31 12:27:13;;;;;;;12.10;3.08;;;13.30;99.90;;;;;;5041939;28;20044;-93
2023/03/31 12:29:47;;;;;;;13.30;3.45;;;13.60;99.90;;;;;;5029121;28;20041;-94
2023/03/31 12:32:23;;;;;;;11.20;2.70;;;13.70;99.90;;;;;;5053520;28;20058;-93
2023/03/31 12:35:24;;;;;;;13.35;4.22;;;13.70;99.90;;;;;;5035602;28;20039;-94
2023/03/31 12:38:05;;;;;;;15.20;3.55;;;13.80;99.90;;;;;;5048097;28;20047;-94
2023/03/31 12:40:50;;;;;;;15.90;5.13;;;13.80;99.90;;;;;;5035846;28;20040;-93
2023/03/31 12:43:59;;;;;;;16.33;4.60;;;13.90;99.90;;;;;;5047587;28;20545;-94
2023/03/31 12:46:52;;;;;;;13.90;4.03;;;13.90;99.90;;;;;;5037587;28;20082;-94
2023/03/31 12:49:55;;;;;;;10.43;3.22;;;13.80;99.90;;;;;;5048236;28;20036;-93
2023/03/31 12:52:41;;;;;;;12.48;2.28;;;13.70;99.90;;;;;;5029302;28;20055;-93
2023/03/31 12:55:22;;;;;;;11.07;2.10;;;13.60;99.90;;;;;;5038736;28;20414;-93
2023/03/31 12:57:51;;;;;;;14.23;3.75;;;13.60;99.90;;;;;;5055031;28;20043;-94
2023/03/31 13:00:28;;;;;;;14.27;3.63;;;13.60;99.90;;;;;;5054592;28;20051;-94
2023/03/31 13:03:48;;;;;;;12.00;2.50;;;13.70;99.90;;;;;;5038406;28;20036;-94
2023/03/31 13:06:29;;;;;;;9.60;2.05;;;13.60;99.90;;;;;;4955957;28;20732;-93
2023/03/31 13:08:59;;;;;;;11.95;2.22;;;13.50;99.90;;;;;;5034612;28;20127;-93
2023/03/31 13:11:37;;;;;;;13.50;3.92;;;13.50;99.90;;;;;;5048307;28;20569;-94